Time;durP1;ratioP1;P1;durP2;ratioP2;P2;SDS_P1;SDS_P2;PMS_P1;PMS_P2;Temp;Humidity;BMP_temperature;BMP_pressure;BME280_temperature;BME280_humidity;BME280_pressure;Samples;Min_cycle;Max_cycle;Signal;HPM_P1;HPM_P2
2023/01/21 00:01:49;;;;;;;39.15;16.77;;;;;;;;;;5060444;28;20415;-81
2023/01/21 00:04:23;;;;;;;37.75;16.65;;;;;;;;;;5061870;28;20770;-81
2023/01/21 00:06:56;;;;;;;38.50;16.42;;;;;;;;;;5053729;28;20442;-81
2023/01/21 00:09:24;;;;;;;39.78;17.15;;;;;;;;;;5059769;28;20426;-81
2023/01/21 00:11:52;;;;;;;35.30;16.98;;;;;;;;;;5056391;28;20425;-81
2023/01/21 00:14:20;;;;;;;36.97;16.60;;;;;;;;;;5060450;28;20423;-80
2023/01/21 00:16:52;;;;;;;38.70;16.17;;;;;;;;;;5079219;28;20780;-81
2023/01/21 00:19:20;;;;;;;37.42;16.75;;;;;;;;;;5061796;28;20417;-80
2023/01/21 00:21:49;;;;;;;40.85;17.42;;;;;;;;;;5056723;28;20421;-80
2023/01/21 00:24:23;;;;;;;40.08;17.67;;;;;;;;;;5062050;28;20433;-81
2023/01/21 00:26:56;;;;;;;41.20;17.23;;;;;;;;;;5060772;28;20458;-81
2023/01/21 00:29:29;;;;;;;41.15;17.05;;;;;;;;;;5073944;28;20431;-81
2023/01/21 00:32:01;;;;;;;39.72;17.75;;;;;;;;;;5062018;28;20424;-81
2023/01/21 00:34:34;;;;;;;37.65;16.77;;;;;;;;;;5078534;28;20920;-81
2023/01/21 00:37:08;;;;;;;37.95;17.70;;;;;;;;;;5078543;28;20481;-80
2023/01/21 00:39:41;;;;;;;37.63;17.00;;;;;;;;;;5061735;28;20436;-80
2023/01/21 00:42:10;;;;;;;37.00;17.38;;;;;;;;;;5066515;28;20440;-81
2023/01/21 00:44:37;;;;;;;42.55;17.35;;;;;;;;;;5058900;28;20922;-80
2023/01/21 00:47:06;;;;;;;38.05;17.45;;;;;;;;;;5060506;28;20426;-80
2023/01/21 00:49:34;;;;;;;38.95;16.08;;;;;;;;;;5058056;28;20923;-81
2023/01/21 00:52:01;;;;;;;43.20;18.00;;;;;;;;;;5076452;28;20502;-80
2023/01/21 00:54:31;;;;;;;38.75;17.63;;;;;;;;;;5075203;28;20421;-80
2023/01/21 00:57:05;;;;;;;41.60;17.77;;;;;;;;;;5059190;28;20433;-81
2023/01/21 00:59:38;;;;;;;38.85;17.45;;;;;;;;;;5062142;28;20431;-80
2023/01/21 01:02:06;;;;;;;41.30;17.77;;;;;;;;;;5059050;28;20413;-81
2023/01/21 01:04:33;;;;;;;42.20;16.92;;;;;;;;;;5068961;28;20420;-80
2023/01/21 01:07:01;;;;;;;38.13;17.37;;;;;;;;;;5059655;28;20436;-81
2023/01/21 01:09:36;;;;;;;40.28;18.13;;;;;;;;;;5059811;28;20423;-80
2023/01/21 01:12:03;;;;;;;39.70;17.40;;;;;;;;;;5059383;28;20798;-81
2023/01/21 01:14:36;;;;;;;44.28;17.85;;;;;;;;;;5076967;28;20437;-80
2023/01/21 01:17:09;;;;;;;39.90;17.17;;;;;;;;;;5062502;28;20426;-81
2023/01/21 01:19:42;;;;;;;38.43;17.77;;;;;;;;;;5062929;28;20435;-80
2023/01/21 01:22:15;;;;;;;41.97;17.77;;;;;;;;;;5053555;28;20768;-80
2023/01/21 01:24:49;;;;;;;37.75;17.23;;;;;;;;;;5074308;28;20428;-81
2023/01/21 01:27:17;;;;;;;39.53;17.50;;;;;;;;;;5061487;28;20427;-81
2023/01/21 01:29:49;;;;;;;42.35;17.85;;;;;;;;;;5060406;28;20422;-80
2023/01/21 01:32:17;;;;;;;41.28;17.67;;;;;;;;;;5076186;28;20434;-81
2023/01/21 01:34:45;;;;;;;44.33;18.03;;;;;;;;;;5057438;28;20485;-80
2023/01/21 01:37:18;;;;;;;40.10;17.75;;;;;;;;;;5056474;28;20435;-81
2023/01/21 01:39:52;;;;;;;42.00;18.02;;;;;;;;;;5059272;28;20429;-80
2023/01/21 01:42:25;;;;;;;43.25;17.80;;;;;;;;;;5061432;28;20912;-80
2023/01/21 01:44:58;;;;;;;38.13;17.35;;;;;;;;;;5060814;28;20427;-81
2023/01/21 01:47:29;;;;;;;41.38;17.55;;;;;;;;;;5058944;28;20424;-81
2023/01/21 01:50:02;;;;;;;42.67;18.02;;;;;;;;;;5062641;28;20429;-81
2023/01/21 01:52:36;;;;;;;37.60;17.13;;;;;;;;;;5059766;28;20421;-80
2023/01/21 01:55:06;;;;;;;38.03;16.58;;;;;;;;;;5062435;28;20776;-80
2023/01/21 01:57:40;;;;;;;40.28;17.65;;;;;;;;;;5075671;28;20421;-81
2023/01/21 02:00:11;;;;;;;42.23;18.13;;;;;;;;;;5079502;28;20410;-80
2023/01/21 02:02:39;;;;;;;40.45;17.95;;;;;;;;;;5076537;28;20435;-80
2023/01/21 02:05:12;;;;;;;41.10;17.20;;;;;;;;;;5062532;28;20436;-80
2023/01/21 02:07:45;;;;;;;40.55;17.27;;;;;;;;;;5057666;28;20793;-81
2023/01/21 02:10:19;;;;;;;37.23;17.17;;;;;;;;;;5071215;28;20455;-81
2023/01/21 02:12:52;;;;;;;41.75;17.63;;;;;;;;;;5059142;28;20432;-81
2023/01/21 02:15:27;;;;;;;39.80;16.83;;;;;;;;;;5058144;28;20425;-80
2023/01/21 02:18:04;;;;;;;42.22;17.10;;;;;;;;;;5058760;28;20421;-81
2023/01/21 02:21:07;;;;;;;37.60;16.90;;;;;;;;;;5058118;28;21080;-81
2023/01/21 02:23:53;;;;;;;39.35;17.23;;;;;;;;;;4979434;28;20425;-80
2023/01/21 02:26:41;;;;;;;40.93;17.60;;;;;;;;;;5053680;28;20511;-80
2023/01/21 02:29:33;;;;;;;39.83;17.00;;;;;;;;;;5059350;28;20885;-81
2023/01/21 02:32:07;;;;;;;40.47;16.92;;;;;;;;;;5055931;28;20421;-81
2023/01/21 02:34:44;;;;;;;43.47;17.35;;;;;;;;;;5062477;28;20426;-81
2023/01/21 02:37:13;;;;;;;41.40;17.85;;;;;;;;;;5075388;28;20792;-81
2023/01/21 02:40:06;;;;;;;40.05;16.95;;;;;;;;;;5059529;28;20753;-81
2023/01/21 02:42:41;;;;;;;36.70;16.73;;;;;;;;;;5066132;28;20434;-81
2023/01/21 02:45:13;;;;;;;43.05;17.92;;;;;;;;;;5074350;28;20543;-81
2023/01/21 02:47:49;;;;;;;37.70;16.33;;;;;;;;;;5057695;28;20423;-80
2023/01/21 02:50:21;;;;;;;40.73;17.40;;;;;;;;;;5064209;28;20417;-80
2023/01/21 02:52:55;;;;;;;39.97;16.70;;;;;;;;;;5065346;28;20784;-81
2023/01/21 02:55:28;;;;;;;40.40;16.92;;;;;;;;;;5063571;28;20429;-81
2023/01/21 02:57:58;;;;;;;37.67;16.77;;;;;;;;;;5061940;28;20417;-81
2023/01/21 03:00:36;;;;;;;41.35;17.63;;;;;;;;;;5079752;28;20435;-81
2023/01/21 03:03:26;;;;;;;39.78;15.98;;;;;;;;;;5060207;28;20466;-80
2023/01/21 03:06:25;;;;;;;38.05;16.75;;;;;;;;;;5065307;28;20424;-80
2023/01/21 03:08:59;;;;;;;42.40;18.00;;;;;;;;;;5063924;28;20429;-81
2023/01/21 03:11:28;;;;;;;44.45;17.90;;;;;;;;;;5059943;28;21070;-81
2023/01/21 03:16:58;;;;;;;45.75;17.67;;;;;;;;;;5063832;28;20424;-80
2023/01/21 03:19:35;;;;;;;47.92;18.73;;;;;;;;;;5058722;28;20427;-81
2023/01/21 03:22:11;;;;;;;40.20;16.35;;;;;;;;;;5062307;28;20434;-81
2023/01/21 03:24:40;;;;;;;44.67;18.00;;;;;;;;;;5056308;28;20425;-80
2023/01/21 03:27:14;;;;;;;38.58;16.85;;;;;;;;;;5060832;28;20440;-81
2023/01/21 03:29:44;;;;;;;40.10;17.40;;;;;;;;;;5060784;28;20442;-81
2023/01/21 03:32:18;;;;;;;38.35;16.70;;;;;;;;;;5061332;28;20434;-81
2023/01/21 03:34:53;;;;;;;42.85;17.80;;;;;;;;;;5059563;28;20432;-81
2023/01/21 03:37:30;;;;;;;40.00;16.98;;;;;;;;;;5061943;28;20430;-81
2023/01/21 03:40:01;;;;;;;41.92;17.75;;;;;;;;;;5056376;28;20406;-81
2023/01/21 03:42:34;;;;;;;40.75;16.95;;;;;;;;;;5064040;28;20438;-81
2023/01/21 03:45:08;;;;;;;41.47;18.42;;;;;;;;;;5059213;28;20458;-81
2023/01/21 03:47:43;;;;;;;45.87;18.43;;;;;;;;;;5062593;28;20516;-81
2023/01/21 03:50:19;;;;;;;43.25;18.52;;;;;;;;;;5060992;28;20423;-80
2023/01/21 03:52:49;;;;;;;43.13;19.02;;;;;;;;;;5059705;28;20437;-81
2023/01/21 03:55:21;;;;;;;41.92;18.13;;;;;;;;;;5061817;28;20441;-81
2023/01/21 03:57:54;;;;;;;42.00;18.05;;;;;;;;;;5059647;28;20431;-81
2023/01/21 04:00:27;;;;;;;44.43;18.00;;;;;;;;;;5059034;28;20429;-81
2023/01/21 04:03:00;;;;;;;41.28;17.75;;;;;;;;;;5063239;28;20427;-81
2023/01/21 04:05:34;;;;;;;43.53;17.35;;;;;;;;;;5057759;28;20416;-81
2023/01/21 04:08:03;;;;;;;40.53;18.55;;;;;;;;;;5054392;28;20404;-81
2023/01/21 04:10:36;;;;;;;42.00;18.98;;;;;;;;;;5064228;28;20415;-80
2023/01/21 04:13:03;;;;;;;44.08;18.73;;;;;;;;;;5054729;28;20413;-80
2023/01/21 04:15:36;;;;;;;42.72;18.20;;;;;;;;;;5076995;28;20428;-80
2023/01/21 04:18:04;;;;;;;40.53;18.23;;;;;;;;;;5078073;28;20424;-81
2023/01/21 04:20:31;;;;;;;45.23;19.63;;;;;;;;;;5063409;28;20421;-81
2023/01/21 04:22:59;;;;;;;44.33;19.43;;;;;;;;;;5060355;28;20901;-81
2023/01/21 04:25:33;;;;;;;44.65;20.17;;;;;;;;;;5076245;28;20438;-81
2023/01/21 04:28:06;;;;;;;43.95;19.58;;;;;;;;;;5060361;28;20442;-81
2023/01/21 04:30:39;;;;;;;39.90;18.02;;;;;;;;;;5059473;28;20425;-81
2023/01/21 04:33:07;;;;;;;47.83;18.20;;;;;;;;;;5060806;28;20417;-80
2023/01/21 04:35:39;;;;;;;39.83;17.52;;;;;;;;;;5061403;28;20427;-81
2023/01/21 04:38:12;;;;;;;44.60;18.27;;;;;;;;;;5060623;28;20431;-81
2023/01/21 04:40:46;;;;;;;42.20;18.00;;;;;;;;;;5059018;28;20529;-81
2023/01/21 04:43:19;;;;;;;44.20;18.42;;;;;;;;;;5076628;28;20419;-81
2023/01/21 04:45:48;;;;;;;40.35;17.20;;;;;;;;;;5060013;28;20428;-81
2023/01/21 04:48:21;;;;;;;43.60;17.53;;;;;;;;;;5072292;28;20440;-81
2023/01/21 04:50:54;;;;;;;39.15;16.75;;;;;;;;;;5073177;28;20431;-81
2023/01/21 04:53:22;;;;;;;43.60;17.33;;;;;;;;;;5076702;28;20427;-81
2023/01/21 04:55:52;;;;;;;39.67;16.98;;;;;;;;;;5078586;28;20464;-81
2023/01/21 04:58:20;;;;;;;41.78;17.40;;;;;;;;;;5074004;28;20431;-81
2023/01/21 05:00:48;;;;;;;41.83;17.63;;;;;;;;;;5061877;28;20427;-81
2023/01/21 05:03:21;;;;;;;43.47;17.27;;;;;;;;;;5061244;28;20420;-80
2023/01/21 05:05:48;;;;;;;47.35;18.27;;;;;;;;;;5075852;28;20437;-81
2023/01/21 05:08:21;;;;;;;52.05;18.70;;;;;;;;;;5072494;28;20437;-80
2023/01/21 05:10:49;;;;;;;47.97;18.08;;;;;;;;;;5075057;28;20438;-81
2023/01/21 05:13:23;;;;;;;48.67;18.17;;;;;;;;;;5055197;28;20543;-81
2023/01/21 05:15:56;;;;;;;48.72;17.98;;;;;;;;;;5054789;28;20425;-81
2023/01/21 05:18:29;;;;;;;46.88;18.33;;;;;;;;;;5057082;28;20443;-81
2023/01/21 05:21:01;;;;;;;46.13;18.25;;;;;;;;;;5074307;28;20425;-81
2023/01/21 05:23:34;;;;;;;53.33;18.73;;;;;;;;;;5056764;28;20431;-80
2023/01/21 05:26:07;;;;;;;47.97;18.27;;;;;;;;;;5060767;28;20448;-81
2023/01/21 05:28:36;;;;;;;47.72;17.73;;;;;;;;;;5050458;28;20433;-81
2023/01/21 05:31:04;;;;;;;49.42;17.95;;;;;;;;;;5057212;28;20425;-81
2023/01/21 05:33:33;;;;;;;45.28;18.17;;;;;;;;;;5073968;28;20436;-80
2023/01/21 05:36:01;;;;;;;41.28;17.05;;;;;;;;;;5053069;28;20439;-80
2023/01/21 05:38:29;;;;;;;46.47;17.57;;;;;;;;;;5057853;28;20434;-81
2023/01/21 05:40:57;;;;;;;43.78;16.17;;;;;;;;;;5056069;28;20430;-80
2023/01/21 05:43:30;;;;;;;45.80;15.98;;;;;;;;;;5061402;28;20439;-81
2023/01/21 05:45:59;;;;;;;41.83;15.53;;;;;;;;;;5075185;28;20428;-81
2023/01/21 05:48:32;;;;;;;57.45;17.08;;;;;;;;;;5056150;28;20428;-81
2023/01/21 05:51:00;;;;;;;52.38;16.73;;;;;;;;;;5071862;28;21228;-80
2023/01/21 05:53:33;;;;;;;47.75;16.88;;;;;;;;;;5061006;28;20777;-81
2023/01/21 05:56:06;;;;;;;73.88;18.00;;;;;;;;;;5060235;28;20432;-80
2023/01/21 05:58:33;;;;;;;49.80;16.88;;;;;;;;;;5073149;28;20426;-81
2023/01/21 06:01:02;;;;;;;49.33;17.20;;;;;;;;;;5057127;28;21259;-81
2023/01/21 06:03:36;;;;;;;76.90;17.13;;;;;;;;;;5074799;28;20427;-81
2023/01/21 06:06:10;;;;;;;64.15;18.40;;;;;;;;;;5056745;28;20422;-81
2023/01/21 06:08:43;;;;;;;51.50;17.05;;;;;;;;;;5058079;28;20425;-81
2023/01/21 06:11:11;;;;;;;63.47;17.10;;;;;;;;;;5051691;28;20922;-81
2023/01/21 06:13:43;;;;;;;61.70;15.83;;;;;;;;;;5073578;28;20439;-81
2023/01/21 06:16:18;;;;;;;77.87;16.10;;;;;;;;;;5057198;28;20436;-81
2023/01/21 06:18:50;;;;;;;75.35;16.25;;;;;;;;;;5055835;28;20434;-81
2023/01/21 06:21:18;;;;;;;80.43;16.45;;;;;;;;;;5060381;28;20427;-80
2023/01/21 06:23:51;;;;;;;91.90;16.35;;;;;;;;;;5072222;28;20431;-80
2023/01/21 06:26:23;;;;;;;111.30;16.50;;;;;;;;;;5058712;28;20446;-80
2023/01/21 06:28:56;;;;;;;60.53;16.02;;;;;;;;;;5055428;28;20444;-81
2023/01/21 06:31:31;;;;;;;83.03;16.03;;;;;;;;;;5057061;28;20427;-81
2023/01/21 06:33:58;;;;;;;89.22;16.65;;;;;;;;;;5068632;28;21010;-81
2023/01/21 06:36:26;;;;;;;57.78;16.20;;;;;;;;;;5069839;28;20429;-81
2023/01/21 06:38:59;;;;;;;56.38;17.13;;;;;;;;;;5058174;28;20440;-80
2023/01/21 06:41:32;;;;;;;67.53;16.80;;;;;;;;;;5058050;28;20424;-81
2023/01/21 06:44:05;;;;;;;55.42;16.33;;;;;;;;;;5058062;28;20430;-81
2023/01/21 06:46:39;;;;;;;52.78;17.23;;;;;;;;;;5060361;28;20424;-81
2023/01/21 06:49:11;;;;;;;72.65;16.17;;;;;;;;;;5057530;28;20898;-81
2023/01/21 06:51:39;;;;;;;59.75;16.35;;;;;;;;;;5058837;28;20421;-81
2023/01/21 06:54:12;;;;;;;58.35;15.57;;;;;;;;;;5059601;28;21105;-80
2023/01/21 06:56:42;;;;;;;49.55;14.85;;;;;;;;;;5055770;28;20437;-81
2023/01/21 06:59:15;;;;;;;54.93;15.40;;;;;;;;;;5060770;28;20419;-82
2023/01/21 07:01:49;;;;;;;45.72;15.30;;;;;;;;;;5059498;28;20442;-82
2023/01/21 07:04:22;;;;;;;79.03;16.33;;;;;;;;;;5053878;28;20422;-82
2023/01/21 07:06:54;;;;;;;73.40;16.92;;;;;;;;;;5054443;28;20420;-82
2023/01/21 07:09:22;;;;;;;263.50;17.80;;;;;;;;;;5070539;28;20903;-82
2023/01/21 07:11:50;;;;;;;85.60;15.80;;;;;;;;;;5059171;28;20475;-83
2023/01/21 07:14:23;;;;;;;191.15;17.33;;;;;;;;;;5058899;28;20454;-86
2023/01/21 07:16:57;;;;;;;156.65;16.77;;;;;;;;;;5052421;28;20429;-82
2023/01/21 07:19:29;;;;;;;292.70;20.35;;;;;;;;;;5061647;28;20431;-82
2023/01/21 07:22:02;;;;;;;167.38;17.48;;;;;;;;;;5058718;28;20774;-82
2023/01/21 07:24:30;;;;;;;190.38;18.70;;;;;;;;;;5055868;28;20792;-82
2023/01/21 07:27:05;;;;;;;181.18;18.70;;;;;;;;;;5059251;28;20431;-84
2023/01/21 07:29:32;;;;;;;87.20;17.40;;;;;;;;;;5057931;28;20415;-82
2023/01/21 07:32:01;;;;;;;167.35;20.23;;;;;;;;;;5058752;28;20427;-82
2023/01/21 07:34:29;;;;;;;213.13;19.15;;;;;;;;;;5058066;28;20427;-82
2023/01/21 07:37:02;;;;;;;114.70;17.70;;;;;;;;;;5059515;28;20425;-82
2023/01/21 07:39:30;;;;;;;124.70;18.75;;;;;;;;;;5059365;28;20776;-82
2023/01/21 07:42:03;;;;;;;135.27;18.15;;;;;;;;;;5063176;28;20434;-82
2023/01/21 07:44:36;;;;;;;168.73;18.13;;;;;;;;;;5067531;28;20419;-82
2023/01/21 07:47:10;;;;;;;280.88;19.55;;;;;;;;;;5062663;28;20944;-82
2023/01/21 07:49:39;;;;;;;219.52;19.33;;;;;;;;;;5061483;28;20437;-82
2023/01/21 07:52:12;;;;;;;286.67;19.50;;;;;;;;;;5058454;28;21110;-82
2023/01/21 07:54:40;;;;;;;384.73;20.90;;;;;;;;;;5062478;28;20425;-80
2023/01/21 07:57:07;;;;;;;310.30;20.33;;;;;;;;;;5052879;28;20447;-82
2023/01/21 07:59:35;;;;;;;305.43;19.70;;;;;;;;;;5059279;28;20419;-81
2023/01/21 08:02:11;;;;;;;310.05;19.90;;;;;;;;;;5075167;28;20437;-82
2023/01/21 08:04:44;;;;;;;283.35;19.35;;;;;;;;;;5061795;28;21272;-82
2023/01/21 08:07:12;;;;;;;146.02;18.20;;;;;;;;;;5077297;28;20425;-82
2023/01/21 08:09:45;;;;;;;181.98;20.33;;;;;;;;;;5062608;28;20413;-83
2023/01/21 08:12:17;;;;;;;286.03;20.57;;;;;;;;;;5059348;28;20528;-82
2023/01/21 08:14:45;;;;;;;221.90;19.43;;;;;;;;;;5062732;28;20506;-82
2023/01/21 08:17:19;;;;;;;333.93;21.37;;;;;;;;;;5059606;28;20437;-82
2023/01/21 08:19:52;;;;;;;371.65;22.30;;;;;;;;;;5062237;28;20431;-81
2023/01/21 08:22:25;;;;;;;238.65;19.63;;;;;;;;;;5060362;28;20420;-82
2023/01/21 08:24:58;;;;;;;292.50;20.25;;;;;;;;;;5060910;28;21409;-81
2023/01/21 08:27:31;;;;;;;369.90;21.52;;;;;;;;;;5075559;28;20424;-82
2023/01/21 08:30:04;;;;;;;229.45;19.55;;;;;;;;;;5061106;28;20421;-81
2023/01/21 08:32:33;;;;;;;334.67;21.37;;;;;;;;;;5074052;28;20454;-81
2023/01/21 08:35:01;;;;;;;178.27;19.70;;;;;;;;;;5061742;28;20426;-82
2023/01/21 08:37:34;;;;;;;111.32;18.40;;;;;;;;;;5058409;28;20420;-82
2023/01/21 08:40:02;;;;;;;242.07;19.52;;;;;;;;;;5059052;28;20432;-81
2023/01/21 08:42:34;;;;;;;248.45;19.67;;;;;;;;;;5064533;28;20425;-82
2023/01/21 08:45:08;;;;;;;208.25;18.08;;;;;;;;;;5076274;28;20433;-82
2023/01/21 08:47:42;;;;;;;154.57;19.02;;;;;;;;;;5072424;28;20432;-82
2023/01/21 08:50:15;;;;;;;289.10;20.45;;;;;;;;;;5061056;28;20428;-81
2023/01/21 08:52:51;;;;;;;177.13;18.88;;;;;;;;;;5055885;28;20421;-82
2023/01/21 08:55:25;;;;;;;194.20;19.40;;;;;;;;;;5076028;28;20437;-82
2023/01/21 08:57:53;;;;;;;153.90;17.93;;;;;;;;;;5054561;28;20425;-82
2023/01/21 09:00:21;;;;;;;112.60;17.42;;;;;;;;;;5058740;28;20467;-81
2023/01/21 09:02:51;;;;;;;83.73;16.30;;;;;;;;;;5057813;28;20430;-82
2023/01/21 09:05:23;;;;;;;107.82;16.38;;;;;;;;;;5057934;28;20436;-82
2023/01/21 09:07:56;;;;;;;167.85;17.63;;;;;;;;;;5061066;28;20428;-81
2023/01/21 09:13:19;;;;;;;130.47;16.83;;;;;;;;;;5061038;28;20823;-81
2023/01/21 09:15:52;;;;;;;130.82;18.42;;;;;;;;;;5057592;28;20691;-81
2023/01/21 09:18:26;;;;;;;73.78;16.85;;;;;;;;;;5059476;28;20853;-81
2023/01/21 09:20:54;;;;;;;121.80;17.03;;;;;;;;;;5070733;28;20529;-81
2023/01/21 09:23:27;;;;;;;135.80;17.83;;;;;;;;;;5056655;28;20905;-81
2023/01/21 09:26:01;;;;;;;105.43;18.13;;;;;;;;;;5058187;28;20908;-81
2023/01/21 09:28:35;;;;;;;106.30;19.30;;;;;;;;;;5064497;28;20427;-81
2023/01/21 09:31:08;;;;;;;79.20;17.63;;;;;;;;;;5059139;28;20429;-81
2023/01/21 09:33:44;;;;;;;83.95;18.80;;;;;;;;;;5059958;28;20419;-81
2023/01/21 09:36:17;;;;;;;70.18;16.85;;;;;;;;;;5059398;28;20757;-81
2023/01/21 09:38:46;;;;;;;60.90;17.58;;;;;;;;;;5059221;28;20425;-81
2023/01/21 09:41:22;;;;;;;80.07;17.80;;;;;;;;;;5069876;28;20432;-81
2023/01/21 09:44:12;;;;;;;50.08;16.55;;;;;;;;;;5055181;28;20913;-81
2023/01/21 09:46:43;;;;;;;61.42;16.52;;;;;;;;;;5056461;28;20432;-81
2023/01/21 09:49:15;;;;;;;50.35;16.23;;;;;;;;;;5054073;28;20932;-81
2023/01/21 09:51:50;;;;;;;53.40;17.00;;;;;;;;;;5055597;28;20431;-81
2023/01/21 09:54:27;;;;;;;50.00;16.15;;;;;;;;;;5055013;28;20433;-81
2023/01/21 09:57:09;;;;;;;55.28;16.35;;;;;;;;;;5071334;28;20439;-81
2023/01/21 09:59:47;;;;;;;52.63;16.48;;;;;;;;;;5058732;28;20948;-82
2023/01/21 10:02:23;;;;;;;46.55;16.10;;;;;;;;;;5054866;28;20524;-81
2023/01/21 10:05:05;;;;;;;51.90;16.45;;;;;;;;;;5057940;28;20766;-82
2023/01/21 10:07:42;;;;;;;46.13;16.52;;;;;;;;;;5073738;28;20432;-85
2023/01/21 10:10:20;;;;;;;44.30;15.90;;;;;;;;;;5059597;28;20434;-82
2023/01/21 10:12:53;;;;;;;50.35;15.55;;;;;;;;;;5059704;28;20423;-83
2023/01/21 10:15:30;;;;;;;42.75;15.63;;;;;;;;;;5057094;28;20433;-82
2023/01/21 10:18:04;;;;;;;42.75;15.43;;;;;;;;;;5059235;28;20903;-82
2023/01/21 10:20:36;;;;;;;45.72;15.73;;;;;;;;;;5057705;28;20416;-82
2023/01/21 10:23:13;;;;;;;39.78;14.15;;;;;;;;;;5060527;28;20425;-82
2023/01/21 10:25:47;;;;;;;37.17;14.02;;;;;;;;;;5056561;28;20898;-82
2023/01/21 10:28:22;;;;;;;38.45;14.07;;;;;;;;;;5061137;28;20779;-82
2023/01/21 10:30:58;;;;;;;38.08;14.18;;;;;;;;;;5058325;28;20799;-83
2023/01/21 10:33:32;;;;;;;32.72;13.38;;;;;;;;;;5059483;28;20433;-82
2023/01/21 10:36:13;;;;;;;36.78;13.25;;;;;;;;;;5057574;28;20797;-82
2023/01/21 10:38:44;;;;;;;30.58;12.90;;;;;;;;;;5057164;28;21094;-81
2023/01/21 10:41:23;;;;;;;33.95;13.23;;;;;;;;;;5059742;28;20419;-82
2023/01/21 10:43:59;;;;;;;28.70;11.98;;;;;;;;;;5057544;28;20458;-82
2023/01/21 10:46:38;;;;;;;32.42;13.07;;;;;;;;;;5056677;28;20435;-82
2023/01/21 10:49:24;;;;;;;28.08;12.25;;;;;;;;;;5056347;28;20428;-82
2023/01/21 10:52:00;;;;;;;30.02;12.48;;;;;;;;;;5055438;28;20446;-82
2023/01/21 10:54:31;;;;;;;30.58;12.63;;;;;;;;;;5056814;28;20929;-82
2023/01/21 10:57:07;;;;;;;32.33;13.35;;;;;;;;;;5057759;28;20425;-82
2023/01/21 10:59:41;;;;;;;30.48;13.05;;;;;;;;;;5059391;28;20450;-82
2023/01/21 11:02:18;;;;;;;32.08;12.52;;;;;;;;;;5061515;28;20430;-82
2023/01/21 11:04:51;;;;;;;31.35;13.40;;;;;;;;;;5059310;28;20821;-81
2023/01/21 11:07:21;;;;;;;32.80;13.38;;;;;;;;;;5056427;28;20427;-81
2023/01/21 11:09:49;;;;;;;30.40;13.25;;;;;;;;;;5053837;28;20422;-82
2023/01/21 11:12:17;;;;;;;28.20;11.48;;;;;;;;;;5060106;28;20423;-82
2023/01/21 11:14:47;;;;;;;29.38;12.57;;;;;;;;;;5058441;28;20442;-82
2023/01/21 11:17:29;;;;;;;29.25;12.30;;;;;;;;;;5075195;28;20877;-82
2023/01/21 11:20:03;;;;;;;30.23;12.57;;;;;;;;;;5063059;28;20424;-82
2023/01/21 11:22:42;;;;;;;29.70;12.75;;;;;;;;;;5059467;28;20758;-82
2023/01/21 11:25:23;;;;;;;31.25;13.55;;;;;;;;;;5061836;28;20430;-82
2023/01/21 11:27:56;;;;;;;29.92;13.07;;;;;;;;;;5058444;28;20423;-82
2023/01/21 11:30:28;;;;;;;32.85;13.15;;;;;;;;;;5078281;28;20954;-81
2023/01/21 11:33:11;;;;;;;30.63;13.63;;;;;;;;;;5061783;28;20433;-82
2023/01/21 11:35:47;;;;;;;35.45;15.02;;;;;;;;;;5074338;28;20711;-82
2023/01/21 11:38:24;;;;;;;34.08;14.77;;;;;;;;;;5059469;28;21076;-81
2023/01/21 11:41:02;;;;;;;33.25;14.65;;;;;;;;;;5060660;28;20450;-82
2023/01/21 11:43:34;;;;;;;36.20;15.35;;;;;;;;;;5060385;28;20850;-82
2023/01/21 11:46:20;;;;;;;33.00;14.57;;;;;;;;;;5060922;28;20419;-83
2023/01/21 11:48:48;;;;;;;35.95;14.25;;;;;;;;;;5059346;28;20430;-82
2023/01/21 11:51:21;;;;;;;31.88;15.23;;;;;;;;;;5060926;28;20479;-84
2023/01/21 11:54:11;;;;;;;33.05;15.18;;;;;;;;;;5063485;28;20428;-83
2023/01/21 11:56:54;;;;;;;32.17;15.13;;;;;;;;;;5060911;28;20925;-83
2023/01/21 11:59:28;;;;;;;34.80;15.55;;;;;;;;;;5058847;28;20422;-82
2023/01/21 12:01:57;;;;;;;36.08;15.50;;;;;;;;;;5057617;28;20426;-84
2023/01/21 12:04:26;;;;;;;35.65;15.48;;;;;;;;;;5078084;28;20427;-83
2023/01/21 12:06:56;;;;;;;39.20;16.73;;;;;;;;;;5059064;28;20438;-83
2023/01/21 12:09:29;;;;;;;34.80;15.67;;;;;;;;;;5057001;28;20431;-83
2023/01/21 12:12:08;;;;;;;32.70;15.00;;;;;;;;;;5076421;28;20427;-83
2023/01/21 12:14:43;;;;;;;34.88;15.48;;;;;;;;;;5059769;28;20415;-83
2023/01/21 12:17:20;;;;;;;36.50;15.93;;;;;;;;;;5059024;28;20433;-82
2023/01/21 12:19:59;;;;;;;30.05;13.90;;;;;;;;;;5075652;28;20438;-81
2023/01/21 12:22:42;;;;;;;29.30;13.75;;;;;;;;;;5073153;28;20420;-84
2023/01/21 12:25:21;;;;;;;29.40;13.55;;;;;;;;;;5059158;28;20780;-83
2023/01/21 12:28:01;;;;;;;26.30;12.02;;;;;;;;;;5075484;28;20425;-81
2023/01/21 12:30:38;;;;;;;26.30;12.57;;;;;;;;;;5059133;28;20938;-82
2023/01/21 12:33:10;;;;;;;25.00;12.30;;;;;;;;;;5055324;28;20416;-82
2023/01/21 12:35:46;;;;;;;28.50;12.97;;;;;;;;;;5077468;28;20423;-82
2023/01/21 12:38:16;;;;;;;25.98;11.40;;;;;;;;;;5074529;28;20444;-82
2023/01/21 12:40:52;;;;;;;26.00;11.57;;;;;;;;;;5058323;28;20430;-82
2023/01/21 12:43:29;;;;;;;25.17;11.00;;;;;;;;;;5059322;28;20440;-82
2023/01/21 12:46:04;;;;;;;24.15;11.30;;;;;;;;;;5060769;28;20771;-85
2023/01/21 12:48:39;;;;;;;21.58;11.15;;;;;;;;;;5063180;28;20936;-82
2023/01/21 12:51:09;;;;;;;21.90;10.50;;;;;;;;;;5058358;28;20428;-81
2023/01/21 12:53:44;;;;;;;24.45;11.32;;;;;;;;;;5060503;28;20428;-81
2023/01/21 12:56:17;;;;;;;24.15;11.52;;;;;;;;;;5061012;28;20909;-82
2023/01/21 12:58:49;;;;;;;24.45;11.38;;;;;;;;;;5060644;28;20442;-81
2023/01/21 13:01:33;;;;;;;21.52;11.00;;;;;;;;;;5063836;28;20770;-82
2023/01/21 13:04:12;;;;;;;22.90;10.45;;;;;;;;;;5059113;28;20885;-82
2023/01/21 13:06:47;;;;;;;24.08;9.73;;;;;;;;;;5060171;28;20428;-82
2023/01/21 13:09:24;;;;;;;23.20;10.88;;;;;;;;;;5075477;28;20419;-82
2023/01/21 13:11:53;;;;;;;23.60;10.67;;;;;;;;;;5061942;28;20930;-82
2023/01/21 13:14:29;;;;;;;23.80;10.50;;;;;;;;;;5059851;28;20427;-82
2023/01/21 13:17:05;;;;;;;22.55;10.65;;;;;;;;;;5046171;28;20450;-81
2023/01/21 13:19:38;;;;;;;22.20;10.40;;;;;;;;;;5052048;28;20424;-81
2023/01/21 13:22:17;;;;;;;20.73;9.50;;;;;;;;;;5044225;28;20420;-81
2023/01/21 13:24:56;;;;;;;17.58;8.00;;;;;;;;;;5045224;28;20427;-81
2023/01/21 13:27:26;;;;;;;18.65;8.88;;;;;;;;;;5040733;28;20432;-82
2023/01/21 13:30:03;;;;;;;16.00;8.20;;;;;;;;;;5035357;28;20434;-81
2023/01/21 13:32:38;;;;;;;14.57;7.25;;;;;;;;;;5043437;28;20446;-82
2023/01/21 13:35:17;;;;;;;13.30;6.37;;;;;;;;;;5039340;28;20434;-81
2023/01/21 13:37:55;;;;;;;13.25;6.32;;;;;;;;;;5044676;28;20434;-81
2023/01/21 13:40:30;;;;;;;14.07;6.55;;;;;;;;;;5046732;28;20423;-82
2023/01/21 13:43:08;;;;;;;13.10;5.93;;;;;;;;;;5049975;28;20416;-82
2023/01/21 13:45:48;;;;;;;10.50;5.05;;;;;;;;;;5044164;28;20795;-81
2023/01/21 13:48:32;;;;;;;9.27;4.40;;;;;;;;;;5043472;28;20904;-82
2023/01/21 13:51:11;;;;;;;11.35;4.78;;;;;;;;;;5050477;28;21217;-81
2023/01/21 13:53:46;;;;;;;9.20;4.03;;;;;;;;;;5042743;28;20505;-82
2023/01/21 13:56:22;;;;;;;9.35;4.38;;;;;;;;;;5041795;28;20917;-81
2023/01/21 13:58:57;;;;;;;9.25;4.38;;;;;;;;;;5044440;28;20428;-81
2023/01/21 14:01:34;;;;;;;9.70;4.72;;;;;;;;;;5037219;28;20427;-83
2023/01/21 14:04:10;;;;;;;10.60;4.85;;;;;;;;;;5051714;28;20430;-82
2023/01/21 14:06:41;;;;;;;9.52;4.45;;;;;;;;;;5046012;28;20407;-82
2023/01/21 14:09:17;;;;;;;11.02;4.38;;;;;;;;;;5044250;28;20910;-83
2023/01/21 14:11:49;;;;;;;10.30;4.45;;;;;;;;;;5038811;28;20420;-81
2023/01/21 14:14:41;;;;;;;12.73;4.68;;;;;;;;;;5041299;28;20423;-81
2023/01/21 14:17:21;;;;;;;8.35;3.90;;;;;;;;;;5064432;28;20431;-81
2023/01/21 14:20:00;;;;;;;9.18;3.72;;;;;;;;;;5046896;28;20420;-81
2023/01/21 14:22:50;;;;;;;11.70;4.00;;;;;;;;;;5052493;28;20434;-82
2023/01/21 14:25:31;;;;;;;7.93;3.50;;;;;;;;;;5043503;28;20478;-83
2023/01/21 14:28:04;;;;;;;9.40;3.63;;;;;;;;;;5061760;28;20427;-81
2023/01/21 14:30:40;;;;;;;7.50;3.53;;;;;;;;;;5041923;28;20812;-81
2023/01/21 14:33:16;;;;;;;7.63;3.25;;;;;;;;;;5037645;28;20458;-80
2023/01/21 14:35:53;;;;;;;7.17;3.37;;;;;;;;;;5044990;28;20423;-82
2023/01/21 14:38:33;;;;;;;9.48;4.07;;;;;;;;;;5042146;28;20416;-81
2023/01/21 14:41:06;;;;;;;9.10;4.22;;;;;;;;;;5042726;28;20424;-81
2023/01/21 14:43:48;;;;;;;10.60;4.25;;;;;;;;;;5041816;28;20415;-80
2023/01/21 14:46:26;;;;;;;9.30;4.03;;;;;;;;;;5050612;28;20419;-81
2023/01/21 14:49:06;;;;;;;10.60;4.72;;;;;;;;;;5043485;28;21140;-81
2023/01/21 14:51:35;;;;;;;8.88;4.60;;;;;;;;;;5051468;28;20802;-82
2023/01/21 14:54:10;;;;;;;11.45;5.00;;;;;;;;;;5044493;28;20415;-81
2023/01/21 14:56:51;;;;;;;9.87;4.63;;;;;;;;;;5049075;28;20519;-81
2023/01/21 14:59:31;;;;;;;8.85;3.90;;;;;;;;;;5062784;28;20430;-83